createdAt,value
2022-11-24T00:01:09.558Z,98925.34
2022-11-24T00:03:41.882Z,98927.52
2022-11-24T00:06:16.170Z,98929.56
2022-11-24T00:08:49.612Z,98930.45
2022-11-24T00:11:24.191Z,98933.89
2022-11-24T00:13:56.843Z,98940.33
2022-11-24T00:16:30.964Z,98943.08
2022-11-24T00:19:05.535Z,98940.66
2022-11-24T00:21:38.945Z,98938.17
2022-11-24T00:24:13.114Z,98941.36
2022-11-24T00:26:45.370Z,98947.48
2022-11-24T00:29:15.991Z,98956.50
2022-11-24T00:31:48.116Z,98952.40
2022-11-24T00:34:18.953Z,98949.15
2022-11-24T00:36:51.081Z,98952.30
2022-11-24T00:39:23.174Z,98954.02
2022-11-24T00:41:55.326Z,98951.63
2022-11-24T00:44:27.827Z,98956.18
2022-11-24T00:47:00.056Z,98956.39
2022-11-24T00:49:32.671Z,98953.17
2022-11-24T00:52:03.238Z,98950.11
2022-11-24T00:54:35.612Z,98948.98
2022-11-24T00:57:07.920Z,98952.38
2022-11-24T00:59:40.347Z,98950.64
2022-11-24T01:02:12.644Z,98948.20
2022-11-24T01:04:43.280Z,98950.71
2022-11-24T01:07:15.414Z,98951.05
2022-11-24T01:09:46.090Z,98947.35
2022-11-24T01:12:18.262Z,98945.80
2022-11-24T01:14:48.943Z,98940.83
2022-11-24T01:17:21.087Z,98941.13
2022-11-24T01:19:51.819Z,98944.34
2022-11-24T01:22:26.662Z,98942.34
2022-11-24T01:24:59.254Z,98946.49
2022-11-24T01:27:31.531Z,98946.21
2022-11-24T01:30:02.099Z,98949.83
2022-11-24T01:32:36.292Z,98951.70
2022-11-24T01:35:10.521Z,98954.52
2022-11-24T01:37:42.733Z,98960.80
2022-11-24T01:40:13.938Z,98963.30
2022-11-24T01:42:50.711Z,98965.89
2022-11-24T01:45:42.867Z,98971.23
2022-11-24T01:48:22.077Z,98974.92
2022-11-24T01:51:03.697Z,98972.44
2022-11-24T01:53:36.518Z,98970.83
2022-11-24T01:56:10.451Z,98968.37
2022-11-24T01:58:44.168Z,98970.95
2022-11-24T02:01:16.565Z,98972.08
2022-11-24T02:03:50.388Z,98972.65
2022-11-24T02:06:26.746Z,98972.73
2022-11-24T02:09:03.614Z,98972.20
2022-11-24T02:11:39.122Z,98968.98
2022-11-24T02:14:15.080Z,98968.99
2022-11-24T02:16:52.029Z,98969.57
2022-11-24T02:19:37.430Z,98965.36
2022-11-24T02:22:15.533Z,98965.19
2022-11-24T02:24:53.087Z,98965.88
2022-11-24T02:27:25.366Z,98961.98
2022-11-24T02:29:55.855Z,98965.38
2022-11-24T02:32:28.661Z,98972.12
2022-11-24T02:35:05.897Z,98968.27
2022-11-24T02:37:38.404Z,98968.26
2022-11-24T02:40:15.642Z,98966.66
2022-11-24T02:42:48.772Z,98970.88
2022-11-24T02:45:22.145Z,98969.29
2022-11-24T02:47:54.418Z,98975.40
2022-11-24T02:50:25.296Z,98975.17
2022-11-24T02:52:57.648Z,98977.30
2022-11-24T02:55:28.333Z,98976.73
2022-11-24T02:58:00.529Z,98972.04
2022-11-24T03:00:31.120Z,98975.16
2022-11-24T03:03:03.406Z,98973.09
2022-11-24T03:05:35.916Z,98971.62
2022-11-24T03:08:08.456Z,98967.38
2022-11-24T03:10:40.628Z,98968.33
2022-11-24T03:13:11.734Z,98965.23
2022-11-24T03:15:43.976Z,98966.98
2022-11-24T03:18:16.307Z,98965.35
2022-11-24T03:20:48.554Z,98970.33
2022-11-24T03:23:20.931Z,98971.27
2022-11-24T03:25:53.320Z,98967.59
2022-11-24T03:28:25.722Z,98970.01
2022-11-24T03:30:56.306Z,98971.45
2022-11-24T03:33:28.749Z,98975.45
2022-11-24T03:36:01.203Z,98974.31
2022-11-24T03:38:32.137Z,98977.01
2022-11-24T03:41:04.450Z,98980.02
2022-11-24T03:43:41.985Z,98978.38
2022-11-24T03:46:15.967Z,98981.92
2022-11-24T03:48:48.160Z,98988.39
2022-11-24T03:51:18.857Z,98985.05
2022-11-24T03:53:51.082Z,98988.48
2022-11-24T03:56:21.885Z,98989.36
2022-11-24T03:58:54.059Z,98988.19
2022-11-24T04:01:24.656Z,98989.12
2022-11-24T04:03:56.920Z,98995.23
2022-11-24T04:06:27.611Z,98996.94
2022-11-24T04:09:00.996Z,99002.66
2022-11-24T04:11:50.506Z,99004.02
2022-11-24T04:14:22.601Z,99000.86
2022-11-24T04:16:54.809Z,98999.59
2022-11-24T04:19:26.967Z,99001.33
2022-11-24T04:21:57.660Z,99003.05
2022-11-24T04:24:29.895Z,99004.64
2022-11-24T04:27:00.447Z,99015.36
2022-11-24T04:29:32.941Z,99018.62
2022-11-24T04:32:03.554Z,99023.91
2022-11-24T04:34:36.247Z,99027.41
2022-11-24T04:37:08.610Z,99029.77
2022-11-24T04:39:39.203Z,99029.48
2022-11-24T04:42:11.513Z,99033.60
2022-11-24T04:44:43.839Z,99033.34
2022-11-24T04:47:23.032Z,99030.59
2022-11-24T04:49:55.990Z,99035.67
2022-11-24T04:52:28.695Z,99039.72
2022-11-24T04:55:01.061Z,99044.21
2022-11-24T04:57:31.692Z,99047.66
2022-11-24T05:00:04.371Z,99045.90
2022-11-24T05:02:36.639Z,99049.73
2022-11-24T05:05:08.530Z,99050.58
2022-11-24T05:07:40.871Z,99051.53
2022-11-24T05:10:30.852Z,99053.14
2022-11-24T05:13:05.639Z,99054.73
2022-11-24T05:15:38.207Z,99062.38
2022-11-24T05:18:12.975Z,99061.29
2022-11-24T05:20:45.854Z,99062.66
2022-11-24T05:23:18.678Z,99065.23
2022-11-24T05:25:51.462Z,99063.63
2022-11-24T05:28:23.616Z,99064.03
2022-11-24T05:30:56.316Z,99062.76
2022-11-24T05:33:30.182Z,99060.85
2022-11-24T05:36:05.740Z,99064.99
2022-11-24T05:38:38.452Z,99068.92
2022-11-24T05:41:10.879Z,99075.96
2022-11-24T05:43:42.976Z,99075.80
2022-11-24T05:46:15.143Z,99085.41
2022-11-24T05:48:48.808Z,99084.28
2022-11-24T05:51:21.137Z,99086.42
2022-11-24T05:53:51.756Z,99091.80
2022-11-24T05:56:23.908Z,99090.71
2022-11-24T05:58:56.051Z,99094.55
2022-11-24T06:01:26.578Z,99096.44
2022-11-24T06:03:58.664Z,99099.34
2022-11-24T06:06:30.789Z,99106.46
2022-11-24T06:09:01.288Z,99109.79
2022-11-24T06:11:33.431Z,99109.40
2022-11-24T06:14:08.305Z,99112.52
2022-11-24T06:16:43.666Z,99117.42
2022-11-24T06:19:16.039Z,99118.13
2022-11-24T06:21:48.752Z,99123.71
2022-11-24T06:24:20.974Z,99126.23
2022-11-24T06:26:53.139Z,99125.37
2022-11-24T06:29:23.533Z,99126.31
2022-11-24T06:31:55.680Z,99128.63
2022-11-24T06:34:28.057Z,99134.80
2022-11-24T06:37:01.145Z,99137.27
2022-11-24T06:39:33.503Z,99136.58
2022-11-24T06:42:06.198Z,99139.90
2022-11-24T06:44:38.370Z,99143.38
2022-11-24T06:47:10.661Z,99145.45
2022-11-24T06:49:41.432Z,99146.66
2022-11-24T06:52:13.563Z,99150.27
2022-11-24T06:54:44.199Z,99154.60
2022-11-24T06:57:16.358Z,99155.39
2022-11-24T06:59:46.957Z,99158.38
2022-11-24T07:02:19.154Z,99159.91
2022-11-24T07:04:49.723Z,99160.17
2022-11-24T07:07:21.741Z,99162.96
2022-11-24T07:09:53.952Z,99167.46
2022-11-24T07:12:25.298Z,99173.26
2022-11-24T07:14:57.368Z,99178.05
2022-11-24T07:17:29.432Z,99181.89
2022-11-24T07:19:59.826Z,99187.38
2022-11-24T07:22:31.993Z,99186.86
2022-11-24T07:25:07.435Z,99185.80
2022-11-24T07:27:39.752Z,99187.24
2022-11-24T07:30:13.574Z,99184.64
2022-11-24T07:32:45.750Z,99186.68
2022-11-24T07:35:16.455Z,99188.20
2022-11-24T07:37:48.869Z,99190.05
2022-11-24T07:40:19.682Z,99190.58
2022-11-24T07:42:51.910Z,99193.80
2022-11-24T07:45:24.159Z,99193.11
2022-11-24T07:47:56.339Z,99195.81
2022-11-24T07:50:28.594Z,99200.42
2022-11-24T07:53:01.869Z,99203.01
2022-11-24T07:55:34.120Z,99206.73
2022-11-24T07:58:06.218Z,99208.41
2022-11-24T08:00:36.755Z,99211.77
2022-11-24T08:03:08.823Z,99213.65
2022-11-24T08:06:00.621Z,99215.31
2022-11-24T08:08:34.025Z,99216.55
2022-11-24T08:11:11.201Z,99223.14
2022-11-24T08:13:43.868Z,99224.52
2022-11-24T08:16:18.793Z,99225.23
2022-11-24T08:18:54.288Z,99227.79
2022-11-24T08:21:26.438Z,99231.55
2022-11-24T08:23:59.428Z,99230.93
2022-11-24T08:26:31.485Z,99230.83
2022-11-24T08:29:03.599Z,99230.74
2022-11-24T08:31:36.149Z,99233.48
2022-11-24T08:34:08.933Z,99232.60
2022-11-24T08:36:40.966Z,99237.96
2022-11-24T08:39:13.234Z,99237.05
2022-11-24T08:41:45.622Z,99241.71
2022-11-24T08:44:18.443Z,99244.89
2022-11-24T08:46:51.173Z,99244.70
2022-11-24T08:49:23.466Z,99241.41
2022-11-24T08:51:53.968Z,99248.89
2022-11-24T08:54:28.115Z,99251.91
2022-11-24T08:57:00.169Z,99249.28
2022-11-24T08:59:32.428Z,99251.42
2022-11-24T09:02:03.003Z,99247.29
2022-11-24T09:04:35.608Z,99249.86
2022-11-24T09:07:08.162Z,99251.95
2022-11-24T09:09:40.351Z,99253.44
2022-11-24T09:12:14.348Z,99253.35
2022-11-24T09:14:47.158Z,99256.90
2022-11-24T09:17:17.655Z,99258.71
2022-11-24T09:19:49.771Z,99260.96
2022-11-24T09:22:21.752Z,99260.66
2022-11-24T09:24:53.991Z,99258.38
2022-11-24T09:27:24.560Z,99257.83
2022-11-24T09:29:56.588Z,99259.00
2022-11-24T09:32:29.587Z,99261.56
2022-11-24T09:35:02.091Z,99258.65
2022-11-24T09:37:35.732Z,99261.16
2022-11-24T09:40:11.740Z,99261.52
2022-11-24T09:42:53.787Z,99265.98
2022-11-24T09:46:03.877Z,99264.95
2022-11-24T09:48:33.153Z,99268.33
2022-11-24T09:51:06.986Z,99261.14
2022-11-24T09:53:44.721Z,99263.30
2022-11-24T09:56:21.953Z,99262.95
2022-11-24T09:58:56.185Z,99260.55
2022-11-24T10:01:31.825Z,99258.91
2022-11-24T10:04:06.683Z,99262.20
2022-11-24T10:06:45.672Z,99261.09
2022-11-24T10:09:29.044Z,99256.99
2022-11-24T10:12:14.823Z,99259.30
2022-11-24T10:15:06.470Z,99261.42
2022-11-24T10:18:02.256Z,99262.77
2022-11-24T10:20:46.432Z,99265.37
2022-11-24T10:23:39.759Z,99268.14
2022-11-24T10:26:19.931Z,99268.40
2022-11-24T10:28:56.371Z,99272.03
2022-11-24T10:31:33.992Z,99267.88
2022-11-24T10:34:13.680Z,99272.40
2022-11-24T10:36:52.529Z,99273.99
2022-11-24T10:39:35.321Z,99272.45
2022-11-24T10:42:17.238Z,99271.80
2022-11-24T10:44:59.645Z,99272.61
2022-11-24T10:47:32.656Z,99273.98
2022-11-24T10:50:12.472Z,99273.28
2022-11-24T10:52:49.001Z,99272.50
2022-11-24T10:55:21.782Z,99272.23
2022-11-24T10:57:54.331Z,99276.69
2022-11-24T11:00:35.973Z,99275.23
2022-11-24T11:03:22.058Z,99273.17
2022-11-24T11:05:57.532Z,99272.92
2022-11-24T11:08:31.799Z,99273.69
2022-11-24T11:11:23.984Z,99273.67
2022-11-24T11:14:03.422Z,99277.49
2022-11-24T11:16:40.039Z,99273.85
2022-11-24T11:19:58.531Z,99269.86
2022-11-24T11:22:31.792Z,99274.77
2022-11-24T11:25:19.586Z,99279.44
2022-11-24T11:27:51.886Z,99281.34
2022-11-24T11:36:21.924Z,99285.99
2022-11-24T11:38:52.467Z,99282.01
2022-11-24T11:41:29.543Z,99286.05
2022-11-24T11:44:12.026Z,99281.88
2022-11-24T11:46:43.218Z,99282.45
2022-11-24T11:49:15.817Z,99280.28
2022-11-24T11:52:15.740Z,99284.06
2022-11-24T11:55:09.338Z,99286.38
2022-11-24T11:57:51.812Z,99288.52
2022-11-24T12:00:24.671Z,99294.60
2022-11-24T12:03:26.189Z,99299.39
2022-11-24T12:06:08.655Z,99298.38
2022-11-24T12:09:18.504Z,99297.06
2022-11-24T12:11:49.941Z,99301.20
2022-11-24T12:14:30.822Z,99297.59
2022-11-24T12:17:12.036Z,99299.79
2022-11-24T12:20:04.893Z,99300.05
2022-11-24T12:22:44.135Z,99301.38
2022-11-24T12:25:26.653Z,99304.38
2022-11-24T12:28:10.807Z,99309.23
2022-11-24T12:30:51.831Z,99309.18
2022-11-24T12:33:38.655Z,99307.31
2022-11-24T12:36:25.225Z,99305.48
2022-11-24T12:39:06.601Z,99310.57
2022-11-24T12:41:59.769Z,99306.02
2022-11-24T12:44:48.172Z,99309.20
2022-11-24T12:47:23.337Z,99316.46
2022-11-24T12:50:04.723Z,99319.16
2022-11-24T12:52:41.088Z,99320.23
2022-11-24T12:55:19.705Z,99319.70
2022-11-24T12:58:00.686Z,99323.05
2022-11-24T13:00:38.110Z,99324.70
2022-11-24T13:03:22.217Z,99325.45
2022-11-24T13:05:58.961Z,99323.04
2022-11-24T13:08:32.366Z,99320.21
2022-11-24T13:11:39.571Z,99320.59
2022-11-24T13:14:16.961Z,99324.60
2022-11-24T13:17:21.513Z,99322.52
2022-11-24T13:19:47.319Z,99320.45
2022-11-24T13:22:26.717Z,99325.66
2022-11-24T13:25:18.315Z,99326.63
2022-11-24T13:27:53.524Z,99329.90
2022-11-24T13:31:10.832Z,99332.64
2022-11-24T13:33:43.367Z,99333.08
2022-11-24T13:36:33.606Z,99338.30
2022-11-24T13:39:19.515Z,99334.45
2022-11-24T13:42:42.176Z,99338.21
2022-11-24T13:45:04.644Z,99338.91
2022-11-24T13:47:47.436Z,99337.63
2022-11-24T13:50:47.751Z,99336.11
2022-11-24T13:53:28.380Z,99342.13
2022-11-24T13:56:05.061Z,99342.02
2022-11-24T13:58:39.908Z,99344.86
2022-11-24T14:01:20.129Z,99348.65
2022-11-24T14:07:06.757Z,99358.26
2022-11-24T14:09:44.736Z,99361.73
2022-11-24T14:12:21.317Z,99362.93
2022-11-24T14:14:55.719Z,99368.42
2022-11-24T14:17:29.532Z,99373.37
2022-11-24T14:20:01.585Z,99379.42
2022-11-24T14:22:36.721Z,99381.15
2022-11-24T14:25:20.770Z,99387.27
2022-11-24T14:27:52.938Z,99387.44
2022-11-24T14:30:25.426Z,99392.98
2022-11-24T14:32:56.922Z,99397.05
2022-11-24T14:35:30.500Z,99400.48
2022-11-24T14:38:05.726Z,99404.98
2022-11-24T14:40:46.918Z,99412.96
2022-11-24T14:43:29.166Z,99412.34
2022-11-24T14:46:00.952Z,99414.95
2022-11-24T14:48:37.058Z,99414.55
2022-11-24T14:51:15.779Z,99414.25
2022-11-24T14:53:51.952Z,99412.55
2022-11-24T14:56:29.797Z,99415.04
2022-11-24T14:59:02.009Z,99413.83
2022-11-24T15:01:36.347Z,99411.92
2022-11-24T15:04:32.822Z,99413.69
2022-11-24T15:07:19.980Z,99412.71
2022-11-24T15:09:58.147Z,99416.35
2022-11-24T15:12:34.927Z,99419.54
2022-11-24T15:15:18.466Z,99418.97
2022-11-24T15:17:52.909Z,99414.96
2022-11-24T15:20:30.449Z,99415.11
2022-11-24T15:23:24.379Z,99415.67
2022-11-24T15:25:57.309Z,99419.38
2022-11-24T15:28:30.256Z,99424.67
2022-11-24T15:31:05.634Z,99424.89
2022-11-24T15:33:37.877Z,99424.85
2022-11-24T15:36:12.523Z,99428.38
2022-11-24T15:38:44.713Z,99431.74
2022-11-24T15:41:21.090Z,99433.69
2022-11-24T15:43:59.066Z,99438.94
2022-11-24T15:46:38.020Z,99431.09
2022-11-24T15:49:10.661Z,99433.55
2022-11-24T15:51:44.542Z,99436.64
2022-11-24T15:54:18.883Z,99433.44
2022-11-24T15:56:51.099Z,99436.61
2022-11-24T15:59:23.193Z,99442.97
2022-11-24T16:01:55.546Z,99444.89
2022-11-24T16:04:28.232Z,99442.20
2022-11-24T16:07:00.779Z,99448.18
2022-11-24T16:09:33.320Z,99453.00
2022-11-24T16:12:05.743Z,99452.03
2022-11-24T16:14:38.269Z,99453.14
2022-11-24T16:17:10.474Z,99452.63
2022-11-24T16:19:42.411Z,99456.89
2022-11-24T16:22:14.630Z,99450.73
2022-11-24T16:24:45.107Z,99449.65
2022-11-24T16:27:17.298Z,99447.97
2022-11-24T16:29:50.877Z,99453.61
2022-11-24T16:32:23.077Z,99456.23
2022-11-24T16:34:53.603Z,99453.98
2022-11-24T16:37:25.966Z,99459.13
2022-11-24T16:39:58.538Z,99464.11
2022-11-24T16:42:31.079Z,99468.16
2022-11-24T16:45:03.392Z,99468.49
2022-11-24T16:47:42.139Z,99473.90
2022-11-24T16:50:15.105Z,99481.73
2022-11-24T16:52:47.615Z,99481.70
2022-11-24T16:55:19.999Z,99478.77
2022-11-24T16:57:52.482Z,99476.50
2022-11-24T17:00:24.808Z,99480.64
2022-11-24T17:02:57.109Z,99478.86
2022-11-24T17:05:29.410Z,99477.59
2022-11-24T17:08:01.555Z,99478.28
2022-11-24T17:10:32.261Z,99480.89
2022-11-24T17:13:04.409Z,99491.01
2022-11-24T17:15:40.856Z,99495.27
2022-11-24T17:18:24.373Z,99501.91
2022-11-24T17:21:03.193Z,99502.79
2022-11-24T17:23:38.584Z,99498.61
2022-11-24T17:26:12.568Z,99498.66
2022-11-24T17:28:45.975Z,99502.66
2022-11-24T17:31:22.300Z,99506.38
2022-11-24T17:33:56.769Z,99507.89
2022-11-24T17:36:29.763Z,99518.14
2022-11-24T17:39:04.592Z,99521.09
2022-11-24T17:41:37.244Z,99521.54
2022-11-24T17:44:08.761Z,99528.85
2022-11-24T17:46:41.020Z,99531.45
2022-11-24T17:49:14.566Z,99536.16
2022-11-24T17:51:50.586Z,99537.69
2022-11-24T17:57:14.993Z,99538.61
2022-11-24T17:59:47.428Z,99543.80
2022-11-24T18:02:19.799Z,99548.29
2022-11-24T18:04:50.302Z,99553.32
2022-11-24T18:07:22.787Z,99554.90
2022-11-24T18:09:54.931Z,99554.52
2022-11-24T18:12:27.205Z,99555.85
2022-11-24T18:14:57.850Z,99560.79
2022-11-24T18:17:30.342Z,99557.19
2022-11-24T18:20:02.519Z,99564.58
2022-11-24T18:23:04.118Z,99568.98
2022-11-24T18:25:27.340Z,99571.55
2022-11-24T18:27:58.102Z,99576.45
2022-11-24T18:30:30.283Z,99583.23
2022-11-24T18:33:02.635Z,99583.40
2022-11-24T18:35:33.411Z,99579.58
2022-11-24T18:38:05.937Z,99581.75
2022-11-24T18:40:41.793Z,99583.05
2022-11-24T18:43:14.645Z,99578.34
2022-11-24T18:45:47.891Z,99573.13
2022-11-24T18:48:20.845Z,99571.98
2022-11-24T18:50:55.382Z,99574.11
2022-11-24T18:53:30.051Z,99574.13
2022-11-24T18:56:03.781Z,99575.55
2022-11-24T18:58:37.255Z,99576.48
2022-11-24T19:01:11.344Z,99570.11
2022-11-24T19:03:48.753Z,99571.73
2022-11-24T19:06:24.155Z,99572.48
2022-11-24T19:08:57.418Z,99577.63
2022-11-24T19:11:34.020Z,99577.13
2022-11-24T19:14:08.884Z,99576.49
2022-11-24T19:16:41.863Z,99575.28
2022-11-24T19:19:17.808Z,99580.56
2022-11-24T19:21:50.720Z,99581.09
2022-11-24T19:24:23.026Z,99580.38
2022-11-24T19:26:55.541Z,99580.94
2022-11-24T19:29:28.321Z,99582.48
2022-11-24T19:32:00.610Z,99581.84
2022-11-24T19:34:33.749Z,99584.79
2022-11-24T19:37:06.417Z,99586.80
2022-11-24T19:39:38.820Z,99588.15
2022-11-24T19:42:11.141Z,99590.61
2022-11-24T19:44:41.731Z,99591.74
2022-11-24T19:47:13.780Z,99590.98
2022-11-24T19:49:45.962Z,99596.30
2022-11-24T19:52:18.658Z,99597.26
2022-11-24T19:54:50.797Z,99598.86
2022-11-24T19:57:21.330Z,99599.16
2022-11-24T19:59:53.894Z,99598.48
2022-11-24T20:02:28.105Z,99603.42
2022-11-24T20:05:00.925Z,99606.54
2022-11-24T20:07:33.390Z,99606.16
2022-11-24T20:10:08.582Z,99609.91
2022-11-24T20:12:41.331Z,99621.90
2022-11-24T20:15:12.375Z,99624.81
2022-11-24T20:17:44.763Z,99631.89
2022-11-24T20:20:16.158Z,99632.76
2022-11-24T20:22:48.349Z,99637.42
2022-11-24T20:25:20.937Z,99640.79
2022-11-24T20:27:53.391Z,99642.31
2022-11-24T20:30:25.447Z,99641.04
2022-11-24T20:32:57.862Z,99646.27
2022-11-24T20:35:30.652Z,99646.30
2022-11-24T20:38:03.136Z,99649.73
2022-11-24T20:40:35.371Z,99650.71
2022-11-24T20:43:08.219Z,99652.60
2022-11-24T20:45:40.566Z,99653.84
2022-11-24T20:48:12.867Z,99652.24
2022-11-24T20:50:48.313Z,99651.91
2022-11-24T20:53:23.253Z,99652.39
2022-11-24T20:56:05.618Z,99654.09
2022-11-24T20:58:39.528Z,99655.36
2022-11-24T21:01:14.032Z,99659.63
2022-11-24T21:03:47.537Z,99654.52
2022-11-24T21:06:20.112Z,99659.33
2022-11-24T21:08:52.608Z,99660.98
2022-11-24T21:11:26.175Z,99663.31
2022-11-24T21:13:58.873Z,99666.50
2022-11-24T21:16:33.094Z,99670.17
2022-11-24T21:19:07.684Z,99671.56
2022-11-24T21:21:42.805Z,99667.77
2022-11-24T21:24:17.167Z,99670.09
2022-11-24T21:26:52.817Z,99670.30
2022-11-24T21:29:25.743Z,99667.61
2022-11-24T21:31:57.984Z,99673.70
2022-11-24T21:34:28.974Z,99675.33
2022-11-24T21:37:01.395Z,99677.77
2022-11-24T21:39:33.618Z,99680.52
2022-11-24T21:42:05.969Z,99679.89
2022-11-24T21:44:38.243Z,99683.73
2022-11-24T21:47:10.308Z,99684.80
2022-11-24T21:49:40.863Z,99686.79
2022-11-24T21:52:12.856Z,99687.73
2022-11-24T21:54:43.563Z,99686.11
2022-11-24T21:57:15.661Z,99697.02
2022-11-24T21:59:47.732Z,99699.61
2022-11-24T22:02:19.920Z,99699.27
2022-11-24T22:04:52.118Z,99704.27
2022-11-24T22:07:24.148Z,99700.95
2022-11-24T22:09:55.790Z,99700.42
2022-11-24T22:12:28.041Z,99691.16
2022-11-24T22:14:58.601Z,99689.06
2022-11-24T22:17:32.697Z,99687.92
2022-11-24T22:20:05.170Z,99696.55
2022-11-24T22:22:37.331Z,99695.14
2022-11-24T22:25:08.515Z,99698.36
2022-11-24T22:27:40.574Z,99698.38
2022-11-24T22:30:13.882Z,99700.06
2022-11-24T22:32:46.050Z,99702.69
2022-11-24T22:35:16.800Z,99705.40
2022-11-24T22:37:48.906Z,99710.78
2022-11-24T22:40:21.333Z,99715.44
2022-11-24T22:42:55.737Z,99719.20
2022-11-24T22:45:27.893Z,99718.86
2022-11-24T22:47:58.406Z,99719.94
2022-11-24T22:50:30.509Z,99723.79
2022-11-24T22:53:02.555Z,99722.02
2022-11-24T22:55:33.038Z,99725.78
2022-11-24T22:58:05.098Z,99726.14
2022-11-24T23:00:37.188Z,99727.35
2022-11-24T23:03:07.794Z,99731.70
2022-11-24T23:05:40.440Z,99728.69
2022-11-24T23:08:12.999Z,99730.63
2022-11-24T23:10:45.162Z,99730.36
2022-11-24T23:13:18.243Z,99733.33
2022-11-24T23:15:50.226Z,99734.07
2022-11-24T23:18:20.758Z,99733.92
2022-11-24T23:20:52.913Z,99736.69
2022-11-24T23:23:24.978Z,99737.15
2022-11-24T23:25:57.035Z,99738.16
2022-11-24T23:28:29.121Z,99737.81
2022-11-24T23:31:02.999Z,99739.45
2022-11-24T23:33:35.391Z,99742.86
2022-11-24T23:36:09.312Z,99743.52
2022-11-24T23:38:41.771Z,99740.17
2022-11-24T23:41:15.898Z,99738.84
2022-11-24T23:43:48.001Z,99731.40
2022-11-24T23:46:21.138Z,99733.36
2022-11-24T23:48:55.627Z,99736.02
2022-11-24T23:51:29.539Z,99736.20
2022-11-24T23:54:02.417Z,99738.89
2022-11-24T23:56:35.287Z,99736.64
2022-11-24T23:59:07.557Z,99732.54
